KEBS/EBS METAR and TAF weather

Enter ICAO airport designator
Station Type Date Time Source
KEBS METAR 2019/10/21 04:55 UTC NOAA

KEBS 210455Z AUTO 11007KT 6SM -RA FEW032 SCT042 OVC065 11/10 A2964 RMK AO2


Station Type Date Time Source
KEBS Decoded METAR 2019/10/21 04:55 UTC NOAA

Webster City, IA, United States (KEBS) 42-26N 093-52W
Oct 21, 2019 - 12:55 AM EDT / 2019.10.21 0455 UTC
Wind: from the ESE (110 degrees) at 8 MPH (7 KT):0
Visibility: 6 mile(s):0
Sky conditions: overcast
Weather: light rain
Temperature: 51 F (11 C)
Dew Point: 50 F (10 C)
Relative Humidity: 93%
Pressure (altimeter): 29.64 in. Hg (1003 hPa)
ob: KEBS 210455Z AUTO 11007KT 6SM -RA FEW032 SCT042 OVC065 11/10 A2964 RMK AO2
cycle: 5

Station Type Date Time Source
KEBS TAF UTC NOAA

Error!

Example: see airport list